createdAt,value
2023-05-18T00:02:07.277Z,8.55
2023-05-18T00:04:35.591Z,8.50
2023-05-18T00:07:04.740Z,8.45
2023-05-18T00:09:33.076Z,8.50
2023-05-18T00:12:00.693Z,8.48
2023-05-18T00:14:28.033Z,8.84
2023-05-18T00:16:55.218Z,8.87
2023-05-18T00:19:24.304Z,8.82
2023-05-18T00:21:52.681Z,8.81
2023-05-18T00:24:19.530Z,8.79
2023-05-18T00:26:47.569Z,8.65
2023-05-18T00:29:14.156Z,8.56
2023-05-18T00:31:40.924Z,8.44
2023-05-18T00:34:12.130Z,8.28
2023-05-18T00:36:39.388Z,8.26
2023-05-18T00:39:07.089Z,8.30
2023-05-18T00:41:33.909Z,8.20
2023-05-18T00:44:01.149Z,8.01
2023-05-18T00:46:28.672Z,7.90
2023-05-18T00:49:01.860Z,7.72
2023-05-18T00:51:29.194Z,7.70
2023-05-18T00:53:57.381Z,7.63
2023-05-18T00:56:25.019Z,7.72
2023-05-18T00:58:57.118Z,7.62
2023-05-18T01:01:28.837Z,7.64
2023-05-18T01:04:02.226Z,7.69
2023-05-18T01:06:36.005Z,7.61
2023-05-18T01:09:06.905Z,7.73
2023-05-18T01:11:54.750Z,7.79
2023-05-18T01:14:57.578Z,7.98
2023-05-18T01:17:42.859Z,7.82
2023-05-18T01:20:16.525Z,7.67
2023-05-18T01:22:43.028Z,7.57
2023-05-18T01:25:29.817Z,7.51
2023-05-18T01:28:06.075Z,7.33
2023-05-18T01:30:41.410Z,7.30
2023-05-18T01:33:09.869Z,7.45
2023-05-18T01:35:36.974Z,7.64
2023-05-18T01:38:04.027Z,7.97
2023-05-18T01:40:41.859Z,8.09
2023-05-18T01:43:13.355Z,7.93
2023-05-18T01:45:44.184Z,7.82
2023-05-18T01:48:15.859Z,7.80
2023-05-18T01:50:48.128Z,7.70
2023-05-18T01:53:27.929Z,7.49
2023-05-18T01:55:55.141Z,7.42
2023-05-18T01:58:22.825Z,7.43
2023-05-18T02:00:50.547Z,7.68
2023-05-18T02:03:17.333Z,7.70
2023-05-18T02:05:43.950Z,7.58
2023-05-18T02:08:10.631Z,7.49
2023-05-18T02:10:37.263Z,7.29
2023-05-18T02:13:03.856Z,7.25
2023-05-18T02:15:30.791Z,7.25
2023-05-18T02:17:58.119Z,7.16
2023-05-18T02:20:24.925Z,7.10
2023-05-18T02:22:51.471Z,7.01
2023-05-18T02:25:18.961Z,6.92
2023-05-18T02:27:45.632Z,6.80
2023-05-18T02:30:15.777Z,6.84
2023-05-18T02:32:42.811Z,6.73
2023-05-18T02:35:10.261Z,6.68
2023-05-18T02:37:40.267Z,6.78
2023-05-18T02:40:10.419Z,6.59
2023-05-18T02:42:36.932Z,6.84
2023-05-18T02:45:03.638Z,6.74
2023-05-18T02:47:30.355Z,7.11
2023-05-18T02:49:56.945Z,6.95
2023-05-18T02:52:23.761Z,6.75
2023-05-18T02:54:50.731Z,6.55
2023-05-18T02:57:17.330Z,6.53
2023-05-18T02:59:43.864Z,6.42
2023-05-18T03:02:14.438Z,6.31
2023-05-18T03:04:41.837Z,6.39
2023-05-18T03:07:08.527Z,6.62
2023-05-18T03:09:35.116Z,6.57
2023-05-18T03:12:01.716Z,6.47
2023-05-18T03:14:28.468Z,6.45
2023-05-18T03:16:57.778Z,6.43
2023-05-18T03:19:24.583Z,6.33
2023-05-18T03:21:51.220Z,6.14
2023-05-18T03:24:17.790Z,6.30
2023-05-18T03:26:44.438Z,6.12
2023-05-18T03:29:13.289Z,6.08
2023-05-18T03:31:40.469Z,6.31
2023-05-18T03:34:07.243Z,6.19
2023-05-18T03:36:35.706Z,6.14
2023-05-18T03:39:02.494Z,6.07
2023-05-18T03:41:29.983Z,6.08
2023-05-18T03:43:56.675Z,6.38
2023-05-18T03:46:23.496Z,6.18
2023-05-18T03:48:50.885Z,6.17
2023-05-18T03:51:17.464Z,6.08
2023-05-18T03:53:44.001Z,6.01
2023-05-18T03:56:10.631Z,6.10
2023-05-18T03:58:37.178Z,6.13
2023-05-18T04:01:04.958Z,6.15
2023-05-18T04:03:34.700Z,6.17
2023-05-18T04:06:01.494Z,6.19
2023-05-18T04:08:30.210Z,6.36
2023-05-18T04:10:56.868Z,6.39
2023-05-18T04:13:23.484Z,6.51
2023-05-18T04:15:50.076Z,6.43
2023-05-18T04:18:17.195Z,6.39
2023-05-18T04:20:46.023Z,6.89
2023-05-18T04:23:12.902Z,6.76
2023-05-18T04:25:41.640Z,6.77
2023-05-18T04:28:09.841Z,6.78
2023-05-18T04:30:37.701Z,6.65
2023-05-18T04:33:06.602Z,6.73
2023-05-18T04:35:33.538Z,7.16
2023-05-18T04:38:00.210Z,7.20
2023-05-18T04:40:26.755Z,7.03
2023-05-18T04:42:53.293Z,6.70
2023-05-18T04:45:20.847Z,6.67
2023-05-18T04:47:53.263Z,6.81
2023-05-18T04:50:21.494Z,6.68
2023-05-18T04:52:49.085Z,6.65
2023-05-18T04:55:25.897Z,6.58
2023-05-18T04:57:56.782Z,6.51
2023-05-18T05:00:25.012Z,6.52
2023-05-18T05:02:51.947Z,6.45
2023-05-18T05:05:19.064Z,6.47
2023-05-18T05:07:45.983Z,6.44
2023-05-18T05:10:12.651Z,6.60
2023-05-18T05:12:39.474Z,6.96
2023-05-18T05:15:07.094Z,6.95
2023-05-18T05:17:33.914Z,7.29
2023-05-18T05:20:00.561Z,7.35
2023-05-18T05:22:27.233Z,7.26
2023-05-18T05:24:53.923Z,7.13
2023-05-18T05:27:20.666Z,7.13
2023-05-18T05:29:47.478Z,7.09
2023-05-18T05:32:14.103Z,7.25
2023-05-18T05:34:40.994Z,7.22
2023-05-18T05:37:07.590Z,7.48
2023-05-18T05:39:34.223Z,7.55
2023-05-18T05:42:00.844Z,7.59
2023-05-18T05:44:27.381Z,7.52
2023-05-18T05:46:54.112Z,7.48
2023-05-18T05:49:20.955Z,7.60
2023-05-18T05:51:47.597Z,7.48
2023-05-18T05:54:14.506Z,7.59
2023-05-18T05:56:41.034Z,7.74
2023-05-18T05:59:07.701Z,7.85
2023-05-18T06:01:34.881Z,7.92
2023-05-18T06:04:02.809Z,8.00
2023-05-18T06:06:29.551Z,7.87
2023-05-18T06:08:56.170Z,7.90
2023-05-18T06:11:22.824Z,8.16
2023-05-18T06:13:49.486Z,8.05
2023-05-18T06:16:16.097Z,8.17
2023-05-18T06:18:43.162Z,8.15
2023-05-18T06:21:09.825Z,8.26
2023-05-18T06:23:36.432Z,8.42
2023-05-18T06:26:03.161Z,8.54
2023-05-18T06:28:29.712Z,8.51
2023-05-18T06:30:56.286Z,8.33
2023-05-18T06:33:23.772Z,8.35
2023-05-18T06:35:50.684Z,8.52
2023-05-18T06:38:17.977Z,8.70
2023-05-18T06:40:45.221Z,8.65
2023-05-18T06:43:11.816Z,8.61
2023-05-18T06:45:38.604Z,8.70
2023-05-18T06:48:12.336Z,8.75
2023-05-18T06:50:38.879Z,8.80
2023-05-18T06:53:06.498Z,8.87
2023-05-18T06:55:33.298Z,9.02
2023-05-18T06:58:00.083Z,9.10
2023-05-18T07:00:26.631Z,9.11
2023-05-18T07:02:53.181Z,9.13
2023-05-18T07:05:19.761Z,9.19
2023-05-18T07:07:47.583Z,9.38
2023-05-18T07:10:14.212Z,9.62
2023-05-18T07:12:40.838Z,9.65
2023-05-18T07:15:07.913Z,9.59
2023-05-18T07:17:34.626Z,9.72
2023-05-18T07:20:01.260Z,9.66
2023-05-18T07:22:27.837Z,9.81
2023-05-18T07:24:54.405Z,9.90
2023-05-18T07:27:21.064Z,9.83
2023-05-18T07:29:47.736Z,9.93
2023-05-18T07:32:14.317Z,10.02
2023-05-18T07:34:43.548Z,10.03
2023-05-18T07:37:10.160Z,10.19
2023-05-18T07:39:36.780Z,10.35
2023-05-18T07:42:03.570Z,10.39
2023-05-18T07:44:30.113Z,10.81
2023-05-18T07:46:56.907Z,11.03
2023-05-18T07:49:24.085Z,10.81
2023-05-18T07:51:51.173Z,11.02
2023-05-18T07:54:17.884Z,10.97
2023-05-18T07:56:44.531Z,10.97
2023-05-18T07:59:11.400Z,10.89
2023-05-18T08:01:38.481Z,11.02
2023-05-18T08:04:05.529Z,11.05
2023-05-18T08:06:32.418Z,10.96
2023-05-18T08:08:59.075Z,11.00
2023-05-18T08:11:25.624Z,11.24
2023-05-18T08:13:52.166Z,11.31
2023-05-18T08:16:18.884Z,11.53
2023-05-18T08:18:45.733Z,11.46
2023-05-18T08:21:12.665Z,11.75
2023-05-18T08:23:39.856Z,11.82
2023-05-18T08:26:08.338Z,11.74
2023-05-18T08:28:35.178Z,11.99
2023-05-18T08:31:01.763Z,12.03
2023-05-18T08:33:28.513Z,11.80
2023-05-18T08:35:55.056Z,11.77
2023-05-18T08:38:21.674Z,11.61
2023-05-18T08:41:23.593Z,11.69
2023-05-18T08:43:58.722Z,11.89
2023-05-18T08:46:33.344Z,12.31
2023-05-18T08:49:01.750Z,12.22
2023-05-18T08:51:32.280Z,12.58
2023-05-18T08:53:59.831Z,13.56
2023-05-18T08:56:26.703Z,13.92
2023-05-18T08:58:56.766Z,14.06
2023-05-18T09:01:28.796Z,14.28
2023-05-18T09:03:57.271Z,14.53
2023-05-18T09:06:25.343Z,13.85
2023-05-18T09:08:54.257Z,14.16
2023-05-18T09:11:23.040Z,14.42
2023-05-18T09:13:51.152Z,14.26
2023-05-18T09:16:18.754Z,14.01
2023-05-18T09:18:45.995Z,14.55
2023-05-18T09:21:12.903Z,14.18
2023-05-18T09:23:40.912Z,14.40
2023-05-18T09:26:10.114Z,14.50
2023-05-18T09:28:38.616Z,13.95
2023-05-18T09:31:12.686Z,13.92
2023-05-18T09:33:40.676Z,13.83
2023-05-18T09:36:08.896Z,13.67
2023-05-18T09:38:40.512Z,14.17
2023-05-18T09:41:11.170Z,14.55
2023-05-18T09:43:37.800Z,13.99
2023-05-18T09:46:09.316Z,14.41
2023-05-18T09:48:37.375Z,14.82
2023-05-18T09:51:07.847Z,14.81
2023-05-18T09:53:37.548Z,14.67
2023-05-18T09:56:07.208Z,14.91
2023-05-18T09:58:38.237Z,13.97
2023-05-18T10:01:05.596Z,13.85
2023-05-18T10:03:36.933Z,14.73
2023-05-18T10:06:08.808Z,14.54
2023-05-18T10:08:36.940Z,15.24
2023-05-18T10:11:04.273Z,15.43
2023-05-18T10:13:32.547Z,15.06
2023-05-18T10:16:01.517Z,15.08
2023-05-18T10:18:32.752Z,14.13
2023-05-18T10:21:01.509Z,14.57
2023-05-18T10:23:32.626Z,15.52
2023-05-18T10:26:00.157Z,14.75
2023-05-18T10:28:31.079Z,15.93
2023-05-18T10:31:00.442Z,16.05
2023-05-18T10:33:29.960Z,15.07
2023-05-18T10:35:57.780Z,14.82
2023-05-18T10:38:28.660Z,15.65
2023-05-18T10:40:57.151Z,14.40
2023-05-18T10:43:27.518Z,15.50
2023-05-18T10:46:01.506Z,15.52
2023-05-18T10:48:29.800Z,15.58
2023-05-18T10:50:57.990Z,15.82
2023-05-18T10:53:29.915Z,15.76
2023-05-18T10:55:56.530Z,16.23
2023-05-18T10:58:26.479Z,15.20
2023-05-18T11:00:58.018Z,15.97
2023-05-18T11:03:26.983Z,16.43
2023-05-18T11:06:08.753Z,17.38
2023-05-18T11:08:43.572Z,17.09
2023-05-18T11:11:10.269Z,17.64
2023-05-18T11:13:43.472Z,16.34
2023-05-18T11:16:10.610Z,17.24
2023-05-18T11:18:44.798Z,17.00
2023-05-18T11:21:20.790Z,16.70
2023-05-18T11:24:32.163Z,16.95
2023-05-18T11:27:03.640Z,17.07
2023-05-18T11:29:41.908Z,17.19
2023-05-18T11:32:30.669Z,17.15
2023-05-18T11:34:58.752Z,16.91
2023-05-18T11:37:44.881Z,17.42
2023-05-18T11:40:13.572Z,17.46
2023-05-18T11:42:40.287Z,17.04
2023-05-18T11:45:11.022Z,16.48
2023-05-18T11:47:40.233Z,15.88
2023-05-18T11:50:08.770Z,17.26
2023-05-18T11:52:47.215Z,15.82
2023-05-18T11:55:16.299Z,16.91
2023-05-18T11:57:44.618Z,17.29
2023-05-18T12:00:12.619Z,16.22
2023-05-18T12:02:43.755Z,16.63
2023-05-18T12:05:11.113Z,15.72
2023-05-18T12:07:38.975Z,16.62
2023-05-18T12:10:08.861Z,17.08
2023-05-18T12:12:35.617Z,18.45
2023-05-18T12:15:06.891Z,17.26
2023-05-18T12:17:50.430Z,16.18
2023-05-18T12:20:21.996Z,15.85
2023-05-18T12:22:52.149Z,15.96
2023-05-18T12:25:20.239Z,16.23
2023-05-18T12:27:50.605Z,17.33
2023-05-18T12:30:35.035Z,16.33
2023-05-18T12:33:03.201Z,17.08
2023-05-18T12:35:31.506Z,17.78
2023-05-18T12:38:02.494Z,17.50
2023-05-18T12:40:44.921Z,16.89
2023-05-18T12:43:11.926Z,16.71
2023-05-18T12:45:38.583Z,17.18
2023-05-18T12:48:05.489Z,17.83
2023-05-18T12:50:32.211Z,16.00
2023-05-18T12:52:58.788Z,17.79
2023-05-18T12:55:25.538Z,17.44
2023-05-18T12:58:07.342Z,18.19
2023-05-18T13:00:37.993Z,18.95
2023-05-18T13:03:08.405Z,18.52
2023-05-18T13:05:35.935Z,17.44
2023-05-18T13:08:02.921Z,16.76
2023-05-18T13:10:32.294Z,15.79
2023-05-18T13:13:03.570Z,16.68
2023-05-18T13:15:35.827Z,17.93
2023-05-18T13:18:09.980Z,19.66
2023-05-18T13:20:42.585Z,20.35
2023-05-18T13:23:17.528Z,19.55
2023-05-18T13:25:45.050Z,19.37
2023-05-18T13:28:13.696Z,19.26
2023-05-18T13:30:42.318Z,18.56
2023-05-18T13:33:10.563Z,18.25
2023-05-18T13:35:38.418Z,16.69
2023-05-18T13:38:05.208Z,17.48
2023-05-18T13:40:31.984Z,20.71
2023-05-18T13:42:58.690Z,19.09
2023-05-18T13:45:25.345Z,20.56
2023-05-18T13:47:53.488Z,20.75
2023-05-18T13:50:21.317Z,20.19
2023-05-18T13:52:48.020Z,20.92
2023-05-18T13:55:15.270Z,21.05
2023-05-18T13:57:41.872Z,20.98
2023-05-18T14:00:13.119Z,20.22
2023-05-18T14:02:44.213Z,18.88
2023-05-18T14:05:11.219Z,17.45
2023-05-18T14:07:39.557Z,18.91
2023-05-18T14:10:07.610Z,18.95
2023-05-18T14:12:34.688Z,19.44
2023-05-18T14:15:01.745Z,18.51
2023-05-18T14:17:31.259Z,17.80
2023-05-18T14:19:59.056Z,17.61
2023-05-18T14:22:30.578Z,17.49
2023-05-18T14:24:57.466Z,16.70
2023-05-18T14:27:24.151Z,16.71
2023-05-18T14:29:51.209Z,16.05
2023-05-18T14:32:20.947Z,17.96
2023-05-18T14:34:51.514Z,18.52
2023-05-18T14:37:18.987Z,19.02
2023-05-18T14:39:45.805Z,19.22
2023-05-18T14:42:12.435Z,16.89
2023-05-18T14:44:39.000Z,16.52
2023-05-18T14:47:06.338Z,17.42
2023-05-18T14:49:33.405Z,16.66
2023-05-18T14:51:59.989Z,16.70
2023-05-18T14:54:26.573Z,17.48
2023-05-18T14:56:53.173Z,17.43
2023-05-18T14:59:21.174Z,17.62
2023-05-18T15:01:47.819Z,19.25
2023-05-18T15:04:15.067Z,20.05
2023-05-18T15:06:41.706Z,19.92
2023-05-18T15:09:08.431Z,20.00
2023-05-18T15:11:35.053Z,20.74
2023-05-18T15:14:01.609Z,19.62
2023-05-18T15:16:28.356Z,22.72
2023-05-18T15:18:55.067Z,23.87
2023-05-18T15:21:21.674Z,25.53
2023-05-18T15:23:48.279Z,25.52
2023-05-18T15:26:15.018Z,18.95
2023-05-18T15:28:44.947Z,19.90
2023-05-18T15:31:11.648Z,18.41
2023-05-18T15:33:42.067Z,18.96
2023-05-18T15:36:09.500Z,17.77
2023-05-18T15:38:36.192Z,17.26
2023-05-18T15:41:02.853Z,17.50
2023-05-18T15:43:30.470Z,16.59
2023-05-18T15:45:58.137Z,16.85
2023-05-18T15:48:24.898Z,17.06
2023-05-18T15:50:51.503Z,16.94
2023-05-18T15:53:18.188Z,16.76
2023-05-18T15:55:44.768Z,16.39
2023-05-18T15:58:13.160Z,16.83
2023-05-18T16:00:39.755Z,16.99
2023-05-18T16:03:06.554Z,15.88
2023-05-18T16:05:33.492Z,16.38
2023-05-18T16:08:00.126Z,16.16
2023-05-18T16:10:26.752Z,16.14
2023-05-18T16:12:53.262Z,16.78
2023-05-18T16:15:24.272Z,16.47
2023-05-18T16:17:51.082Z,16.89
2023-05-18T16:20:18.479Z,17.42
2023-05-18T16:22:46.873Z,17.68
2023-05-18T16:25:13.539Z,18.07
2023-05-18T16:27:40.167Z,17.77
2023-05-18T16:30:07.609Z,16.91
2023-05-18T16:32:34.242Z,16.33
2023-05-18T16:35:01.133Z,16.96
2023-05-18T16:37:28.160Z,17.43
2023-05-18T16:39:54.712Z,17.33
2023-05-18T16:42:22.832Z,17.50
2023-05-18T16:44:49.758Z,18.12
2023-05-18T16:47:16.456Z,18.21
2023-05-18T16:49:45.436Z,18.08
2023-05-18T16:52:12.205Z,18.03
2023-05-18T16:54:38.764Z,16.71
2023-05-18T16:57:06.286Z,16.45
2023-05-18T16:59:34.382Z,15.53
2023-05-18T17:02:01.727Z,16.14
2023-05-18T17:04:28.485Z,16.03
2023-05-18T17:06:55.661Z,15.92
2023-05-18T17:09:22.284Z,15.65
2023-05-18T17:11:48.993Z,15.26
2023-05-18T17:14:15.833Z,15.33
2023-05-18T17:16:42.558Z,15.12
2023-05-18T17:19:09.262Z,15.07
2023-05-18T17:21:35.897Z,15.23
2023-05-18T17:24:02.461Z,15.17
2023-05-18T17:26:33.283Z,15.60
2023-05-18T17:28:59.989Z,15.59
2023-05-18T17:31:27.156Z,15.12
2023-05-18T17:33:54.624Z,15.41
2023-05-18T17:36:21.382Z,15.16
2023-05-18T17:38:48.176Z,15.25
2023-05-18T17:41:15.026Z,14.99
2023-05-18T17:43:41.652Z,15.13
2023-05-18T17:46:08.283Z,15.32
2023-05-18T17:48:34.809Z,15.16
2023-05-18T17:51:01.398Z,15.30
2023-05-18T17:53:27.985Z,15.58
2023-05-18T17:55:54.585Z,15.19
2023-05-18T17:58:21.380Z,14.95
2023-05-18T18:00:48.080Z,15.11
2023-05-18T18:03:15.095Z,15.01
2023-05-18T18:05:41.936Z,15.01
2023-05-18T18:08:08.637Z,15.19
2023-05-18T18:10:35.276Z,14.94
2023-05-18T18:13:01.844Z,14.93
2023-05-18T18:15:29.077Z,14.83
2023-05-18T18:17:56.672Z,14.80
2023-05-18T18:20:23.558Z,14.64
2023-05-18T18:22:51.282Z,14.46
2023-05-18T18:25:17.965Z,14.42
2023-05-18T18:27:44.609Z,14.46
2023-05-18T18:30:11.950Z,14.35
2023-05-18T18:32:38.741Z,14.38
2023-05-18T18:35:05.734Z,14.46
2023-05-18T18:37:32.385Z,14.56
2023-05-18T18:39:59.090Z,14.47
2023-05-18T18:42:25.714Z,14.39
2023-05-18T18:44:56.531Z,14.22
2023-05-18T18:47:23.754Z,14.27
2023-05-18T18:49:50.811Z,14.06
2023-05-18T18:52:17.702Z,14.11
2023-05-18T18:54:45.195Z,14.01
2023-05-18T18:57:12.249Z,14.10
2023-05-18T18:59:39.367Z,14.16
2023-05-18T19:02:06.173Z,14.08
2023-05-18T19:04:32.935Z,14.08
2023-05-18T19:07:02.907Z,13.88
2023-05-18T19:09:34.875Z,14.06
2023-05-18T19:12:02.045Z,13.99
2023-05-18T19:14:28.983Z,14.00
2023-05-18T19:16:56.183Z,13.97
2023-05-18T19:19:23.184Z,13.88
2023-05-18T19:21:49.996Z,13.88
2023-05-18T19:24:16.702Z,13.78
2023-05-18T19:26:43.288Z,13.74
2023-05-18T19:29:09.875Z,13.78
2023-05-18T19:31:37.770Z,13.79
2023-05-18T19:34:04.464Z,13.85
2023-05-18T19:36:31.539Z,13.86
2023-05-18T19:38:58.190Z,13.65
2023-05-18T19:41:25.060Z,13.69
2023-05-18T19:43:51.666Z,13.62
2023-05-18T19:46:19.232Z,13.58
2023-05-18T19:48:46.121Z,13.57
2023-05-18T19:51:12.759Z,13.54
2023-05-18T19:53:39.448Z,13.53
2023-05-18T19:56:06.172Z,13.30
2023-05-18T19:58:32.709Z,13.24
2023-05-18T20:00:59.396Z,13.19
2023-05-18T20:03:27.490Z,13.13
2023-05-18T20:05:56.054Z,13.13
2023-05-18T20:08:22.995Z,13.13
2023-05-18T20:10:49.923Z,13.10
2023-05-18T20:13:16.551Z,13.04
2023-05-18T20:15:43.769Z,12.83
2023-05-18T20:18:10.597Z,12.74
2023-05-18T20:20:37.759Z,12.84
2023-05-18T20:23:07.545Z,12.72
2023-05-18T20:25:35.244Z,12.73
2023-05-18T20:28:03.443Z,12.69
2023-05-18T20:30:30.705Z,12.66
2023-05-18T20:33:03.714Z,12.63
2023-05-18T20:35:30.389Z,12.47
2023-05-18T20:37:57.537Z,12.53
2023-05-18T20:40:24.357Z,12.47
2023-05-18T20:42:54.222Z,12.27
2023-05-18T20:45:25.439Z,12.09
2023-05-18T20:47:52.595Z,12.04
2023-05-18T20:50:20.264Z,12.16
2023-05-18T20:52:47.330Z,12.18
2023-05-18T20:55:14.842Z,12.13
2023-05-18T20:57:44.746Z,12.02
2023-05-18T21:00:13.063Z,11.95
2023-05-18T21:02:41.559Z,12.07
2023-05-18T21:05:08.763Z,11.97
2023-05-18T21:07:37.913Z,11.86
2023-05-18T21:10:04.923Z,12.17
2023-05-18T21:12:31.921Z,11.92
2023-05-18T21:14:58.579Z,11.85
2023-05-18T21:17:25.583Z,11.68
2023-05-18T21:19:52.745Z,11.61
2023-05-18T21:22:19.910Z,11.66
2023-05-18T21:24:46.681Z,11.61
2023-05-18T21:27:13.341Z,11.55
2023-05-18T21:29:39.918Z,11.63
2023-05-18T21:32:06.885Z,11.63
2023-05-18T21:34:33.569Z,11.63
2023-05-18T21:37:00.314Z,11.57
2023-05-18T21:39:27.086Z,11.47
2023-05-18T21:41:53.609Z,11.41
2023-05-18T21:44:20.193Z,11.43
2023-05-18T21:46:46.834Z,11.71
2023-05-18T21:49:13.410Z,11.65
2023-05-18T21:51:41.181Z,11.48
2023-05-18T21:54:07.732Z,11.41
2023-05-18T21:56:35.012Z,11.36
2023-05-18T21:59:01.625Z,11.33
2023-05-18T22:01:28.285Z,11.21
2023-05-18T22:03:54.895Z,11.21
2023-05-18T22:06:22.349Z,11.37
2023-05-18T22:08:49.054Z,11.30
2023-05-18T22:11:16.348Z,11.25
2023-05-18T22:13:43.039Z,11.26
2023-05-18T22:16:09.721Z,11.30
2023-05-18T22:18:36.349Z,11.41
2023-05-18T22:21:03.031Z,11.61
2023-05-18T22:23:29.716Z,11.67
2023-05-18T22:25:56.879Z,11.72
2023-05-18T22:28:23.534Z,11.63
2023-05-18T22:30:51.634Z,11.54
2023-05-18T22:33:18.487Z,11.47
2023-05-18T22:35:45.139Z,11.49
2023-05-18T22:38:12.116Z,11.45
2023-05-18T22:40:38.704Z,11.50
2023-05-18T22:43:05.648Z,11.41
2023-05-18T22:45:35.450Z,11.36
2023-05-18T22:48:02.542Z,11.40
2023-05-18T22:50:29.233Z,11.42
2023-05-18T22:52:55.793Z,11.41
2023-05-18T22:55:22.366Z,11.62
2023-05-18T22:57:48.904Z,11.53
2023-05-18T23:00:15.634Z,11.64
2023-05-18T23:02:42.837Z,11.55
2023-05-18T23:05:10.151Z,11.67
2023-05-18T23:07:37.733Z,11.63
2023-05-18T23:10:05.993Z,11.43
2023-05-18T23:12:33.150Z,11.25
2023-05-18T23:15:03.789Z,11.38
2023-05-18T23:17:31.240Z,11.36
2023-05-18T23:19:59.262Z,11.36
2023-05-18T23:22:26.185Z,11.33
2023-05-18T23:24:52.776Z,11.14
2023-05-18T23:27:20.095Z,11.07
2023-05-18T23:29:46.656Z,10.94
2023-05-18T23:32:13.272Z,10.83
2023-05-18T23:34:40.122Z,10.72
2023-05-18T23:37:10.676Z,10.75
2023-05-18T23:39:43.943Z,10.65
2023-05-18T23:42:11.779Z,10.63
2023-05-18T23:44:38.743Z,10.66
2023-05-18T23:47:05.538Z,10.52
2023-05-18T23:49:32.425Z,10.47
2023-05-18T23:52:02.587Z,10.42
2023-05-18T23:54:29.837Z,10.41
2023-05-18T23:56:56.928Z,10.39
2023-05-18T23:59:24.825Z,10.30
